createdAt,value
2022-08-24T00:01:13.784Z,23.60
2022-08-24T00:03:41.825Z,23.60
2022-08-24T00:06:12.758Z,23.60
2022-08-24T00:08:40.334Z,23.60
2022-08-24T00:11:07.438Z,23.50
2022-08-24T00:13:38.473Z,23.50
2022-08-24T00:16:07.790Z,23.50
2022-08-24T00:18:34.819Z,23.40
2022-08-24T00:21:02.655Z,23.30
2022-08-24T00:23:29.542Z,23.30
2022-08-24T00:28:37.874Z,23.20
2022-08-24T00:31:05.334Z,23.20
2022-08-24T00:33:35.114Z,23.20
2022-08-24T00:36:02.503Z,23.10
2022-08-24T00:38:35.732Z,23.10
2022-08-24T00:41:04.582Z,23.00
2022-08-24T00:43:33.776Z,23.00
2022-08-24T00:46:08.217Z,22.90
2022-08-24T00:48:39.445Z,22.90
2022-08-24T00:51:24.682Z,22.90
2022-08-24T00:53:59.401Z,22.90
2022-08-24T00:56:36.980Z,22.80
2022-08-24T00:59:10.415Z,22.80
2022-08-24T01:01:38.257Z,22.60
2022-08-24T01:04:06.213Z,22.60
2022-08-24T01:06:33.506Z,22.60
2022-08-24T01:09:00.522Z,22.50
2022-08-24T01:11:33.837Z,22.50
2022-08-24T01:14:02.443Z,22.40
2022-08-24T01:16:48.640Z,22.40
2022-08-24T01:19:43.761Z,22.30
2022-08-24T01:22:48.872Z,22.30
2022-08-24T01:25:16.474Z,22.20
2022-08-24T01:27:44.081Z,22.20
2022-08-24T01:30:14.064Z,22.10
2022-08-24T01:32:45.254Z,22.20
2022-08-24T01:35:12.067Z,22.20
2022-08-24T01:37:38.851Z,22.20
2022-08-24T01:40:08.094Z,22.20
2022-08-24T01:42:35.462Z,22.10
2022-08-24T01:45:03.678Z,22.00
2022-08-24T01:47:32.108Z,22.00
2022-08-24T01:49:58.950Z,22.10
2022-08-24T01:52:38.861Z,22.10
2022-08-24T01:55:19.772Z,22.00
2022-08-24T01:57:49.381Z,22.00
2022-08-24T02:00:16.428Z,22.00
2022-08-24T02:02:44.459Z,21.90
2022-08-24T02:05:13.850Z,21.90
2022-08-24T02:07:41.004Z,21.90
2022-08-24T02:10:11.626Z,21.80
2022-08-24T02:12:41.514Z,21.80
2022-08-24T02:15:09.747Z,21.70
2022-08-24T02:17:37.757Z,21.60
2022-08-24T02:20:06.439Z,21.60
2022-08-24T02:22:33.614Z,21.50
2022-08-24T02:25:00.474Z,21.50
2022-08-24T02:27:27.296Z,21.50
2022-08-24T02:29:54.089Z,21.40
2022-08-24T02:32:20.978Z,21.40
2022-08-24T02:34:48.543Z,21.40
2022-08-24T02:37:16.089Z,21.40
2022-08-24T02:39:42.939Z,21.40
2022-08-24T02:42:09.922Z,21.30
2022-08-24T02:44:36.713Z,21.30
2022-08-24T02:47:03.750Z,21.30
2022-08-24T02:49:30.530Z,21.30
2022-08-24T02:51:57.897Z,21.30
2022-08-24T02:54:24.676Z,21.20
2022-08-24T02:56:51.761Z,21.20
2022-08-24T02:59:18.925Z,21.20
2022-08-24T03:01:46.199Z,21.10
2022-08-24T03:04:13.574Z,21.10
2022-08-24T03:06:41.475Z,21.00
2022-08-24T03:09:12.576Z,21.00
2022-08-24T03:11:39.772Z,21.00
2022-08-24T03:14:11.748Z,20.90
2022-08-24T03:16:38.736Z,20.80
2022-08-24T03:19:05.730Z,20.80
2022-08-24T03:21:33.565Z,20.70
2022-08-24T03:24:00.514Z,20.60
2022-08-24T03:26:27.457Z,20.60
2022-08-24T03:28:57.288Z,20.60
2022-08-24T03:31:25.971Z,20.50
2022-08-24T03:33:52.812Z,20.50
2022-08-24T03:36:19.662Z,20.50
2022-08-24T03:38:46.538Z,20.40
2022-08-24T03:41:13.464Z,20.40
2022-08-24T03:43:46.800Z,20.40
2022-08-24T03:46:18.181Z,20.30
2022-08-24T03:48:44.994Z,20.30
2022-08-24T03:51:18.688Z,20.30
2022-08-24T03:53:46.283Z,20.30
2022-08-24T03:56:13.606Z,20.20
2022-08-24T03:58:41.834Z,20.10
2022-08-24T04:01:09.563Z,20.10
2022-08-24T04:03:38.862Z,20.00
2022-08-24T04:06:06.735Z,20.10
2022-08-24T04:08:34.697Z,20.10
2022-08-24T04:11:02.446Z,20.00
2022-08-24T04:13:31.997Z,20.10
2022-08-24T04:16:04.803Z,20.00
2022-08-24T04:18:31.855Z,19.90
2022-08-24T04:20:58.809Z,19.90
2022-08-24T04:23:46.657Z,19.80
2022-08-24T04:26:14.594Z,19.80
2022-08-24T04:28:41.485Z,19.60
2022-08-24T04:31:08.498Z,19.60
2022-08-24T04:33:36.158Z,19.60
2022-08-24T04:36:07.062Z,19.60
2022-08-24T04:38:33.896Z,19.50
2022-08-24T04:41:00.780Z,19.40
2022-08-24T04:43:27.969Z,19.40
2022-08-24T04:45:58.270Z,19.50
2022-08-24T04:48:25.212Z,19.40
2022-08-24T04:50:53.738Z,19.40
2022-08-24T04:53:20.562Z,19.40
2022-08-24T04:55:52.168Z,19.30
2022-08-24T04:58:19.208Z,19.40
2022-08-24T05:00:46.624Z,19.40
2022-08-24T05:03:13.928Z,19.30
2022-08-24T05:05:42.319Z,19.30
2022-08-24T05:08:09.368Z,19.40
2022-08-24T05:10:47.578Z,19.40
2022-08-24T05:13:15.537Z,19.40
2022-08-24T05:15:44.083Z,19.40
2022-08-24T05:18:11.989Z,19.40
2022-08-24T05:20:47.660Z,19.40
2022-08-24T05:23:14.929Z,19.30
2022-08-24T05:25:42.424Z,19.30
2022-08-24T05:28:09.693Z,19.30
2022-08-24T05:30:42.325Z,19.20
2022-08-24T05:33:09.887Z,19.20
2022-08-24T05:35:43.619Z,19.20
2022-08-24T05:38:11.342Z,19.20
2022-08-24T05:40:38.238Z,19.30
2022-08-24T05:43:05.268Z,19.30
2022-08-24T05:45:32.238Z,19.30
2022-08-24T05:47:59.204Z,19.30
2022-08-24T05:50:26.139Z,19.30
2022-08-24T05:52:54.797Z,19.30
2022-08-24T05:55:21.694Z,19.30
2022-08-24T05:57:50.470Z,19.40
2022-08-24T06:00:17.558Z,19.40
2022-08-24T06:02:44.574Z,19.40
2022-08-24T06:05:12.110Z,19.50
2022-08-24T06:07:38.922Z,19.50
2022-08-24T06:10:32.865Z,19.50
2022-08-24T06:12:53.784Z,19.60
2022-08-24T06:15:22.084Z,19.60
2022-08-24T06:17:48.927Z,19.60
2022-08-24T06:20:15.837Z,19.70
2022-08-24T06:22:43.885Z,19.80
2022-08-24T06:25:29.451Z,19.80
2022-08-24T06:27:56.278Z,19.80
2022-08-24T06:30:23.208Z,19.90
2022-08-24T06:33:01.886Z,19.90
2022-08-24T06:35:29.386Z,19.90
2022-08-24T06:37:57.858Z,19.90
2022-08-24T06:40:26.993Z,20.00
2022-08-24T06:42:53.956Z,20.00
2022-08-24T06:45:22.414Z,20.10
2022-08-24T06:47:54.025Z,20.00
2022-08-24T06:50:23.710Z,20.20
2022-08-24T06:52:51.668Z,20.10
2022-08-24T06:55:18.735Z,20.20
2022-08-24T06:57:50.361Z,20.30
2022-08-24T07:00:19.366Z,20.30
2022-08-24T07:02:46.462Z,20.30
2022-08-24T07:05:13.714Z,20.40
2022-08-24T07:07:40.577Z,20.40
2022-08-24T07:10:09.641Z,20.50
2022-08-24T07:12:37.192Z,20.50
2022-08-24T07:15:04.847Z,20.60
2022-08-24T07:17:38.385Z,20.70
2022-08-24T07:20:09.496Z,20.70
2022-08-24T07:22:36.387Z,20.80
2022-08-24T07:25:03.294Z,20.90
2022-08-24T07:27:30.232Z,21.00
2022-08-24T07:30:23.211Z,21.10
2022-08-24T07:32:44.258Z,21.20
2022-08-24T07:35:11.044Z,21.30
2022-08-24T07:37:41.412Z,21.30
2022-08-24T07:40:09.564Z,21.40
2022-08-24T07:42:36.583Z,21.40
2022-08-24T07:45:03.746Z,21.50
2022-08-24T07:47:41.059Z,21.60
2022-08-24T07:50:15.183Z,21.70
2022-08-24T07:52:42.726Z,21.70
2022-08-24T07:55:11.657Z,21.60
2022-08-24T07:57:42.127Z,21.60
2022-08-24T08:00:11.637Z,21.70
2022-08-24T08:02:40.729Z,21.70
2022-08-24T08:05:07.969Z,21.90
2022-08-24T08:07:34.964Z,22.10
2022-08-24T08:10:02.373Z,22.00
2022-08-24T08:12:29.184Z,22.10
2022-08-24T08:14:59.604Z,22.30
2022-08-24T08:17:26.634Z,22.30
2022-08-24T08:19:53.551Z,22.40
2022-08-24T08:22:39.953Z,22.50
2022-08-24T08:25:08.141Z,22.50
2022-08-24T08:27:35.924Z,22.60
2022-08-24T08:30:05.821Z,22.60
2022-08-24T08:32:32.776Z,22.60
2022-08-24T08:35:02.573Z,22.60
2022-08-24T08:37:29.876Z,22.60
2022-08-24T08:39:57.132Z,22.60
2022-08-24T08:42:29.899Z,22.60
2022-08-24T08:45:01.207Z,22.70
2022-08-24T08:47:38.917Z,22.80
2022-08-24T08:50:21.985Z,22.80
2022-08-24T08:53:07.626Z,22.80
2022-08-24T08:56:12.096Z,22.80
2022-08-24T08:59:12.661Z,22.90
2022-08-24T09:01:55.874Z,23.00
2022-08-24T09:04:55.070Z,23.10
2022-08-24T09:07:40.034Z,23.30
2022-08-24T09:10:17.491Z,23.40
2022-08-24T09:13:09.058Z,23.40
2022-08-24T09:15:35.813Z,23.40
2022-08-24T09:18:17.417Z,23.40
2022-08-24T09:20:56.163Z,23.40
2022-08-24T09:23:33.060Z,23.50
2022-08-24T09:26:05.343Z,23.50
2022-08-24T09:28:51.295Z,23.60
2022-08-24T09:31:24.182Z,23.60
2022-08-24T09:34:06.472Z,23.70
2022-08-24T09:36:47.851Z,23.70
2022-08-24T09:39:18.520Z,23.80
2022-08-24T09:42:19.023Z,23.90
2022-08-24T09:45:09.337Z,23.90
2022-08-24T09:47:58.204Z,24.00
2022-08-24T09:51:00.818Z,24.00
2022-08-24T09:53:39.657Z,24.10
2022-08-24T09:56:12.563Z,24.20
2022-08-24T09:58:59.153Z,24.30
2022-08-24T10:01:56.505Z,24.30
2022-08-24T10:04:35.656Z,24.40
2022-08-24T10:07:15.995Z,24.50
2022-08-24T10:10:13.873Z,24.70
2022-08-24T10:13:00.098Z,24.80
2022-08-24T10:16:03.374Z,24.90
2022-08-24T10:18:48.239Z,25.10
2022-08-24T10:21:32.188Z,25.20
2022-08-24T10:24:14.476Z,25.30
2022-08-24T10:26:56.506Z,25.30
2022-08-24T10:29:33.036Z,25.40
2022-08-24T10:32:14.732Z,25.50
2022-08-24T10:35:22.437Z,25.60
2022-08-24T10:38:18.278Z,25.80
2022-08-24T10:41:05.745Z,25.90
2022-08-24T10:43:53.971Z,25.90
2022-08-24T10:46:20.830Z,26.00
2022-08-24T10:48:54.088Z,26.00
2022-08-24T10:51:34.680Z,26.10
2022-08-24T10:54:02.417Z,26.10
2022-08-24T10:56:51.017Z,26.20
2022-08-24T10:59:25.985Z,26.30
2022-08-24T11:02:01.106Z,26.30
2022-08-24T11:04:36.037Z,26.40
2022-08-24T11:07:10.248Z,26.60
2022-08-24T11:09:57.209Z,26.80
2022-08-24T11:12:39.276Z,26.90
2022-08-24T11:15:18.405Z,27.00
2022-08-24T11:18:00.490Z,27.00
2022-08-24T11:20:29.960Z,27.10
2022-08-24T11:22:56.898Z,27.20
2022-08-24T11:25:29.187Z,27.30
2022-08-24T11:28:31.310Z,27.30
2022-08-24T11:30:58.468Z,27.40
2022-08-24T11:33:33.155Z,27.50
2022-08-24T11:36:01.860Z,27.70
2022-08-24T11:38:32.247Z,27.90
2022-08-24T11:41:10.623Z,27.90
2022-08-24T11:44:03.331Z,27.90
2022-08-24T11:46:46.871Z,28.20
2022-08-24T11:49:24.298Z,28.20
2022-08-24T11:52:06.354Z,28.20
2022-08-24T11:54:39.115Z,28.30
2022-08-24T11:57:16.348Z,28.30
2022-08-24T11:59:50.119Z,28.40
2022-08-24T12:02:28.645Z,28.60
2022-08-24T12:05:01.636Z,28.60
2022-08-24T12:08:01.155Z,28.70
2022-08-24T12:10:44.627Z,28.80
2022-08-24T12:13:33.598Z,29.00
2022-08-24T12:16:16.629Z,29.00
2022-08-24T12:19:24.445Z,29.00
2022-08-24T12:21:54.582Z,29.10
2022-08-24T12:24:33.205Z,29.40
2022-08-24T12:27:10.853Z,29.70
2022-08-24T12:29:39.752Z,29.70
2022-08-24T12:32:20.171Z,29.90
2022-08-24T12:34:56.826Z,30.10
2022-08-24T12:37:34.946Z,30.20
2022-08-24T12:40:36.598Z,30.30
2022-08-24T12:43:18.604Z,30.50
2022-08-24T12:45:46.059Z,30.70
2022-08-24T12:48:25.351Z,30.80
2022-08-24T12:50:52.128Z,30.90
2022-08-24T12:53:30.258Z,31.10
2022-08-24T12:56:21.860Z,31.20
2022-08-24T12:58:54.558Z,31.00
2022-08-24T13:01:25.633Z,31.10
2022-08-24T13:04:05.091Z,31.20
2022-08-24T13:06:45.453Z,31.30
2022-08-24T13:09:18.035Z,31.50
2022-08-24T13:11:45.206Z,31.70
2022-08-24T13:14:12.640Z,31.80
2022-08-24T13:16:57.872Z,32.00
2022-08-24T13:19:28.442Z,32.10
2022-08-24T13:21:59.073Z,32.40
2022-08-24T13:24:29.161Z,32.50
2022-08-24T13:27:17.152Z,32.60
2022-08-24T13:29:47.748Z,32.70
2022-08-24T13:32:31.311Z,32.80
2022-08-24T13:34:58.911Z,33.00
2022-08-24T13:37:28.163Z,33.10
2022-08-24T13:40:10.549Z,33.40
2022-08-24T13:42:46.496Z,33.40
2022-08-24T13:45:16.485Z,33.60
2022-08-24T13:47:49.418Z,33.80
2022-08-24T13:50:50.489Z,34.00
2022-08-24T13:53:41.646Z,34.20
2022-08-24T13:56:12.244Z,34.20
2022-08-24T13:58:45.096Z,34.00
2022-08-24T14:01:27.133Z,33.80
2022-08-24T14:04:14.870Z,34.10
2022-08-24T14:06:49.886Z,34.30
2022-08-24T14:09:41.984Z,34.20
2022-08-24T14:12:11.759Z,34.00
2022-08-24T14:14:51.400Z,34.30
2022-08-24T14:17:44.108Z,34.70
2022-08-24T14:20:52.150Z,34.90
2022-08-24T14:23:28.026Z,35.10
2022-08-24T14:26:39.762Z,35.30
2022-08-24T14:29:15.850Z,35.40
2022-08-24T14:32:12.501Z,35.40
2022-08-24T14:34:59.443Z,35.30
2022-08-24T14:38:12.474Z,35.10
2022-08-24T14:41:01.867Z,35.10
2022-08-24T14:43:59.790Z,35.20
2022-08-24T14:46:37.370Z,35.20
2022-08-24T14:49:29.249Z,35.40
2022-08-24T14:52:00.072Z,35.30
2022-08-24T14:54:32.818Z,35.40
2022-08-24T14:57:33.179Z,35.40
2022-08-24T15:00:17.041Z,35.10
2022-08-24T15:02:56.371Z,35.20
2022-08-24T15:05:32.322Z,35.40
2022-08-24T15:08:05.994Z,35.50
2022-08-24T15:10:47.647Z,35.50
2022-08-24T15:13:52.042Z,35.60
2022-08-24T15:16:23.512Z,35.60
2022-08-24T15:19:16.988Z,35.50
2022-08-24T15:22:17.560Z,35.80
2022-08-24T15:24:55.712Z,35.70
2022-08-24T15:27:41.042Z,35.90
2022-08-24T15:30:18.237Z,35.90
2022-08-24T15:32:53.123Z,36.00
2022-08-24T15:35:44.043Z,35.90
2022-08-24T15:38:25.743Z,35.90
2022-08-24T15:41:04.423Z,35.90
2022-08-24T15:43:32.528Z,36.10
2022-08-24T15:45:59.719Z,36.20
2022-08-24T15:48:26.964Z,36.20
2022-08-24T15:50:55.932Z,36.10
2022-08-24T15:53:28.533Z,36.30
2022-08-24T15:55:55.541Z,36.20
2022-08-24T15:58:29.765Z,36.40
2022-08-24T16:01:43.656Z,36.50
2022-08-24T16:04:37.040Z,36.60
2022-08-24T16:07:03.894Z,36.50
2022-08-24T16:09:30.638Z,36.40
2022-08-24T16:11:57.416Z,36.20
2022-08-24T16:14:28.485Z,36.30
2022-08-24T16:16:56.946Z,36.40
2022-08-24T16:19:28.961Z,36.60
2022-08-24T16:22:01.102Z,36.70
2022-08-24T16:24:32.709Z,36.80
2022-08-24T16:27:05.743Z,37.00
2022-08-24T16:29:38.917Z,37.10
2022-08-24T16:32:15.845Z,37.10
2022-08-24T16:34:52.732Z,37.40
2022-08-24T16:37:21.350Z,37.00
2022-08-24T16:39:48.728Z,37.00
2022-08-24T16:42:21.933Z,37.20
2022-08-24T16:44:48.859Z,37.30
2022-08-24T16:47:15.765Z,37.40
2022-08-24T16:49:42.589Z,37.50
2022-08-24T16:52:09.445Z,37.30
2022-08-24T16:54:36.476Z,37.20
2022-08-24T16:57:13.946Z,37.20
2022-08-24T16:59:44.246Z,37.00
2022-08-24T17:02:12.227Z,37.10
2022-08-24T17:04:39.759Z,37.10
2022-08-24T17:07:09.326Z,36.90
2022-08-24T17:09:38.380Z,37.00
2022-08-24T17:12:05.593Z,36.90
2022-08-24T17:14:32.685Z,36.90
2022-08-24T17:16:59.620Z,37.00
2022-08-24T17:19:29.976Z,36.90
2022-08-24T17:21:58.181Z,36.70
2022-08-24T17:24:27.282Z,36.50
2022-08-24T17:26:55.212Z,36.50
2022-08-24T17:29:22.582Z,36.70
2022-08-24T17:31:52.348Z,36.60
2022-08-24T17:34:21.373Z,36.70
2022-08-24T17:36:54.061Z,36.70
2022-08-24T17:39:24.054Z,36.40
2022-08-24T17:41:55.541Z,36.30
2022-08-24T17:44:25.902Z,36.20
2022-08-24T17:46:54.956Z,36.20
2022-08-24T17:49:21.940Z,36.30
2022-08-24T17:51:49.749Z,36.30
2022-08-24T17:54:19.385Z,36.20
2022-08-24T17:56:49.075Z,36.20
2022-08-24T17:59:23.667Z,36.10
2022-08-24T18:01:56.946Z,36.20
2022-08-24T18:04:28.393Z,36.00
2022-08-24T18:06:57.067Z,35.80
2022-08-24T18:09:29.393Z,35.70
2022-08-24T18:11:57.725Z,35.60
2022-08-24T18:14:24.762Z,35.70
2022-08-24T18:16:51.992Z,35.70
2022-08-24T18:19:22.952Z,35.60
2022-08-24T18:21:51.551Z,35.40
2022-08-24T18:24:18.547Z,35.40
2022-08-24T18:26:47.866Z,35.40
2022-08-24T18:29:21.367Z,35.40
2022-08-24T18:31:48.854Z,35.40
2022-08-24T18:34:20.226Z,35.30
2022-08-24T18:36:47.897Z,35.20
2022-08-24T18:39:14.781Z,34.90
2022-08-24T18:41:43.491Z,34.80
2022-08-24T18:44:19.185Z,34.80
2022-08-24T18:46:46.126Z,34.70
2022-08-24T18:49:12.950Z,34.70
2022-08-24T18:51:39.960Z,34.70
2022-08-24T18:54:10.975Z,34.70
2022-08-24T18:56:38.111Z,34.60
2022-08-24T18:59:05.974Z,34.50
2022-08-24T19:01:53.900Z,34.40
2022-08-24T19:04:20.935Z,34.40
2022-08-24T19:06:52.665Z,34.30
2022-08-24T19:09:20.089Z,34.20
2022-08-24T19:11:46.977Z,34.20
2022-08-24T19:14:14.370Z,34.10
2022-08-24T19:16:41.197Z,34.00
2022-08-24T19:19:08.073Z,33.80
2022-08-24T19:21:36.698Z,33.70
2022-08-24T19:24:07.080Z,33.60
2022-08-24T19:26:35.346Z,33.20
2022-08-24T19:29:02.550Z,33.20
2022-08-24T19:31:29.772Z,33.20
2022-08-24T19:34:00.000Z,33.00
2022-08-24T19:36:31.531Z,33.00
2022-08-24T19:38:58.692Z,33.00
2022-08-24T19:41:26.105Z,33.00
2022-08-24T19:44:27.756Z,33.00
2022-08-24T19:46:55.791Z,32.80
2022-08-24T19:49:23.923Z,32.70
2022-08-24T19:51:51.318Z,32.60
2022-08-24T19:54:18.567Z,32.30
2022-08-24T19:56:46.045Z,32.20
2022-08-24T19:59:21.467Z,31.80
2022-08-24T20:01:48.327Z,31.60
2022-08-24T20:04:15.231Z,31.60
2022-08-24T20:06:42.260Z,31.60
2022-08-24T20:09:09.611Z,31.60
2022-08-24T20:11:37.016Z,31.50
2022-08-24T20:14:04.169Z,31.50
2022-08-24T20:16:44.146Z,31.60
2022-08-24T20:19:11.521Z,31.70
2022-08-24T20:21:39.382Z,31.60
2022-08-24T20:24:07.033Z,31.60
2022-08-24T20:26:39.913Z,31.40
2022-08-24T20:29:07.416Z,31.40
2022-08-24T20:31:34.604Z,31.30
2022-08-24T20:34:02.740Z,31.20
2022-08-24T20:36:34.021Z,31.00
2022-08-24T20:39:01.910Z,30.80
2022-08-24T20:41:28.830Z,30.80
2022-08-24T20:43:56.698Z,30.70
2022-08-24T20:46:25.140Z,30.60
2022-08-24T20:48:55.582Z,30.10
2022-08-24T20:51:24.299Z,30.10
2022-08-24T20:53:51.251Z,30.10
2022-08-24T20:56:31.062Z,30.20
2022-08-24T20:59:04.047Z,30.10
2022-08-24T21:01:31.817Z,30.10
2022-08-24T21:04:04.200Z,30.00
2022-08-24T21:06:32.087Z,29.90
2022-08-24T21:08:58.990Z,29.80
2022-08-24T21:11:26.063Z,29.80
2022-08-24T21:13:52.890Z,29.60
2022-08-24T21:16:19.859Z,29.60
2022-08-24T21:18:49.628Z,29.70
2022-08-24T21:21:16.421Z,29.60
2022-08-24T21:23:43.282Z,29.50
2022-08-24T21:26:12.340Z,29.50
2022-08-24T21:28:43.747Z,29.50
2022-08-24T21:31:12.908Z,29.40
2022-08-24T21:33:58.358Z,29.40
2022-08-24T21:36:26.815Z,29.40
2022-08-24T21:38:54.634Z,29.30
2022-08-24T21:41:22.236Z,29.20
2022-08-24T21:43:49.109Z,29.10
2022-08-24T21:46:16.087Z,29.10
2022-08-24T21:48:43.178Z,29.00
2022-08-24T21:51:10.531Z,29.00
2022-08-24T21:53:37.516Z,28.90
2022-08-24T21:56:04.400Z,28.80
2022-08-24T21:58:31.203Z,28.80
2022-08-24T22:00:59.219Z,28.70
2022-08-24T22:03:36.848Z,28.70
2022-08-24T22:06:12.050Z,28.60
2022-08-24T22:08:42.448Z,28.60
2022-08-24T22:11:11.721Z,28.40
2022-08-24T22:13:39.182Z,28.40
2022-08-24T22:16:07.188Z,28.40
2022-08-24T22:18:35.403Z,28.30
2022-08-24T22:21:11.080Z,28.10
2022-08-24T22:23:38.707Z,28.10
2022-08-24T22:26:06.144Z,28.10
2022-08-24T22:28:34.822Z,28.00
2022-08-24T22:31:01.714Z,28.00
2022-08-24T22:33:29.099Z,27.90
2022-08-24T22:35:56.458Z,27.90
2022-08-24T22:38:23.356Z,27.80
2022-08-24T22:40:54.428Z,27.70
2022-08-24T22:43:24.963Z,27.70
2022-08-24T22:45:52.191Z,27.60
2022-08-24T22:48:19.031Z,27.60
2022-08-24T22:50:46.735Z,27.60
2022-08-24T22:53:13.895Z,27.50
2022-08-24T22:55:40.998Z,27.40
2022-08-24T22:58:07.796Z,27.40
2022-08-24T23:00:35.635Z,27.40
2022-08-24T23:03:06.137Z,27.30
2022-08-24T23:05:33.033Z,27.20
2022-08-24T23:07:59.925Z,27.10
2022-08-24T23:10:26.873Z,27.10
2022-08-24T23:12:54.827Z,27.00
2022-08-24T23:15:22.390Z,26.90
2022-08-24T23:17:49.165Z,26.90
2022-08-24T23:20:16.125Z,26.80
2022-08-24T23:22:43.803Z,26.80
2022-08-24T23:25:13.025Z,26.70
2022-08-24T23:27:41.052Z,26.70
2022-08-24T23:30:13.590Z,26.60
2022-08-24T23:32:40.906Z,26.60
2022-08-24T23:35:08.338Z,26.50
2022-08-24T23:37:35.157Z,26.50
2022-08-24T23:40:02.199Z,26.40
2022-08-24T23:42:29.041Z,26.40
2022-08-24T23:44:56.003Z,26.30
2022-08-24T23:47:24.022Z,26.30
2022-08-24T23:49:51.148Z,26.10
2022-08-24T23:52:28.456Z,26.10
2022-08-24T23:55:18.207Z,26.10
2022-08-24T23:57:43.532Z,26.00
